Time;durP1;ratioP1;P1;durP2;ratioP2;P2;SDS_P1;SDS_P2;PMS_P1;PMS_P2;Temp;Humidity;BMP_temperature;BMP_pressure;BME280_temperature;BME280_humidity;BME280_pressure;Samples;Min_cycle;Max_cycle;Signal;HPM_P1;HPM_P2
2022/01/20 00:00:16;;;;;;;1999.90;999.90;;;;;;;-0.82;62.30;101053.31;4837474;28;97656;-70
2022/01/20 00:02:45;;;;;;;1999.90;999.90;;;;;;;-0.80;62.42;101053.41;4836493;28;99424;-70
2022/01/20 00:05:31;;;;;;;1999.90;999.90;;;;;;;-0.83;62.65;101063.66;4838289;28;97270;-69
2022/01/20 00:08:10;;;;;;;1999.90;999.90;;;;;;;-0.53;61.61;101071.00;4834068;28;99329;-68
2022/01/20 00:27:27;;;;;;;1999.90;999.90;;;;;;;-0.71;61.30;101064.50;4838981;28;99300;-68
2022/01/20 00:30:25;;;;;;;1999.90;999.90;;;;;;;-0.74;61.35;101079.97;4831542;28;99773;-69
2022/01/20 00:32:59;;;;;;;1999.90;999.90;;;;;;;-0.82;61.09;101070.69;4851189;28;100469;-69
2022/01/20 00:35:31;;;;;;;1999.90;999.90;;;;;;;-0.88;60.95;101068.53;4837958;28;97936;-69
2022/01/20 00:37:59;;;;;;;1999.90;999.90;;;;;;;-0.94;60.77;101089.00;4839644;28;97816;-69
2022/01/20 00:40:27;;;;;;;1999.90;999.90;;;;;;;-1.01;60.43;101091.03;4829735;28;98182;-68
2022/01/20 00:42:54;;;;;;;1999.90;999.90;;;;;;;-1.05;61.22;101086.44;4810395;29;99896;-70
2022/01/20 00:45:22;;;;;;;1999.90;999.90;;;;;;;-1.10;60.66;101073.03;4835431;28;96818;-69
2022/01/20 00:47:50;;;;;;;1999.90;999.90;;;;;;;-1.14;60.92;101084.03;4843525;28;98658;-69
2022/01/20 00:50:18;;;;;;;1999.90;999.90;;;;;;;-1.18;60.80;101089.84;4811478;28;101783;-69
2022/01/20 00:52:45;;;;;;;1999.90;999.90;;;;;;;-0.88;60.18;101096.34;4836161;28;98175;-71
2022/01/20 00:55:15;;;;;;;1999.90;999.90;;;;;;;-1.09;60.10;101100.06;4837689;28;97549;-70
2022/01/20 00:57:42;;;;;;;1999.90;999.90;;;;;;;-1.13;60.31;101114.59;4840236;28;97959;-70
2022/01/20 01:00:13;;;;;;;1999.90;999.90;;;;;;;-1.17;60.73;101114.25;4838311;28;97879;-69
2022/01/20 01:02:42;;;;;;;1999.90;999.90;;;;;;;-1.19;60.71;101110.59;4828933;28;98181;-69
2022/01/20 01:05:11;;;;;;;1999.90;999.90;;;;;;;-1.19;60.32;101121.06;4833021;28;98054;-69
2022/01/20 01:07:47;;;;;;;1999.90;999.90;;;;;;;-1.24;60.61;101125.03;4827631;28;96966;-69
2022/01/20 01:10:18;;;;;;;1999.90;999.90;;;;;;;-1.32;59.95;101141.84;4827792;28;98425;-70
2022/01/20 01:12:51;;;;;;;1999.90;999.90;;;;;;;-1.34;60.09;101126.06;4835056;28;98363;-70
2022/01/20 01:15:23;;;;;;;1999.90;999.90;;;;;;;-1.38;60.46;101124.03;4835651;28;98544;-69
2022/01/20 01:21:06;;;;;;;1999.90;999.90;;;;;;;-1.41;60.52;101123.78;4839067;28;99025;-70
2022/01/20 01:23:33;;;;;;;1999.90;999.90;;;;;;;-1.40;60.67;101127.31;4823425;29;98818;-70
2022/01/20 01:26:04;;;;;;;1999.90;999.90;;;;;;;-1.42;60.51;101118.47;4839071;28;98569;-70
2022/01/20 01:28:32;;;;;;;1999.90;999.90;;;;;;;-1.44;60.60;101120.06;4841174;28;98373;-70
2022/01/20 01:31:26;;;;;;;1999.90;999.90;;;;;;;-1.45;60.57;101133.91;4831658;28;97473;-71
2022/01/20 01:33:57;;;;;;;1999.90;999.90;;;;;;;-1.48;60.31;101120.59;4837203;28;99499;-70
2022/01/20 01:36:27;;;;;;;1999.90;999.90;;;;;;;-1.52;60.47;101122.09;4831877;28;97078;-69
2022/01/20 01:38:56;;;;;;;1999.90;999.90;;;;;;;-1.54;60.30;101125.41;4824514;29;98487;-72
2022/01/20 01:41:31;;;;;;;1999.90;999.90;;;;;;;-1.55;60.30;101126.16;4827444;28;98080;-70
2022/01/20 01:44:02;;;;;;;1999.90;999.90;;;;;;;-1.26;59.24;101111.88;4838506;28;98294;-70
2022/01/20 01:46:30;;;;;;;1999.90;999.90;;;;;;;-1.44;59.71;101120.06;4832535;28;96937;-72
2022/01/20 01:48:59;;;;;;;1999.90;999.90;;;;;;;-1.50;59.90;101120.50;4826573;29;99409;-70
2022/01/20 01:51:27;;;;;;;1999.90;999.90;;;;;;;-1.53;59.85;101101.09;4833714;28;99368;-70
2022/01/20 01:53:55;;;;;;;1999.90;999.90;;;;;;;-1.58;59.08;101107.69;4840265;28;98623;-69
2022/01/20 01:56:25;;;;;;;1999.90;999.90;;;;;;;-1.66;59.19;101114.03;4855092;28;98663;-69
2022/01/20 01:58:54;;;;;;;1999.90;999.90;;;;;;;-1.69;59.20;101125.16;4832692;28;98549;-71
2022/01/20 02:01:45;;;;;;;1999.90;999.90;;;;;;;-1.78;59.17;101118.34;4830697;28;98822;-70
2022/01/20 02:04:17;;;;;;;1999.90;999.90;;;;;;;-1.80;60.22;101117.31;4833376;28;99141;-70
2022/01/20 02:07:21;;;;;;;1999.90;999.90;;;;;;;-1.85;59.58;101106.50;4840072;28;98108;-69
2022/01/20 02:18:25;;;;;;;1999.90;999.90;;;;;;;-1.83;59.63;101088.41;4827017;29;97730;-70
2022/01/20 02:20:55;;;;;;;1999.90;999.90;;;;;;;-1.89;59.97;101075.81;4855047;28;98841;-71
2022/01/20 02:23:25;;;;;;;1999.90;999.90;;;;;;;-1.92;59.59;101083.38;4838325;28;99460;-70
2022/01/20 02:25:53;;;;;;;1999.90;999.90;;;;;;;-1.93;59.63;101084.19;4831834;28;98704;-69
2022/01/20 02:28:21;;;;;;;1999.90;999.90;;;;;;;-1.95;59.94;101081.47;4842772;28;98224;-70
2022/01/20 02:30:49;;;;;;;1999.90;999.90;;;;;;;-1.95;60.18;101075.34;4824805;28;97377;-70
2022/01/20 02:33:19;;;;;;;1999.90;999.90;;;;;;;-2.02;59.33;101057.41;4837619;28;98910;-69
2022/01/20 02:35:51;;;;;;;1999.90;999.90;;;;;;;-2.03;59.07;101077.38;4830602;28;97411;-70
2022/01/20 02:38:31;;;;;;;1999.90;999.90;;;;;;;-2.06;59.92;101071.00;4853356;28;96979;-72
2022/01/20 02:46:31;;;;;;;1999.90;999.90;;;;;;;-2.08;59.02;101052.66;4823637;29;99229;-70
2022/01/20 02:48:59;;;;;;;1999.90;999.90;;;;;;;-2.06;59.59;101056.28;4840284;28;98140;-70
2022/01/20 02:51:27;;;;;;;1999.90;999.90;;;;;;;-2.03;59.70;101050.38;4854531;28;99320;-70
2022/01/20 02:54:00;;;;;;;1999.90;999.90;;;;;;;-2.05;59.57;101042.44;4816495;29;98226;-70
2022/01/20 02:56:27;;;;;;;1999.90;999.90;;;;;;;-2.06;59.71;101038.03;4823210;28;99279;-68
2022/01/20 02:58:55;;;;;;;1999.90;999.90;;;;;;;-2.07;59.09;101040.53;4840117;28;99538;-68
2022/01/20 03:01:23;;;;;;;1999.90;999.90;;;;;;;-2.09;59.80;101050.81;4843795;28;98011;-70
2022/01/20 03:03:51;;;;;;;1999.90;999.90;;;;;;;-2.10;59.40;101037.69;4832708;28;100408;-67
2022/01/20 03:06:21;;;;;;;1999.90;999.90;;;;;;;-2.09;59.81;101047.34;4831255;28;99627;-70
2022/01/20 03:08:48;;;;;;;1999.90;999.90;;;;;;;-2.09;59.75;101014.31;4840760;28;97562;-69
2022/01/20 03:11:17;;;;;;;1999.90;999.90;;;;;;;-2.06;59.68;101031.91;4831203;28;97469;-66
2022/01/20 03:13:45;;;;;;;1999.90;999.90;;;;;;;-2.11;60.10;101041.97;4839590;28;99394;-70
2022/01/20 03:16:13;;;;;;;1999.90;999.90;;;;;;;-2.11;60.25;101031.53;4837683;28;98466;-69
2022/01/20 03:18:41;;;;;;;1999.90;999.90;;;;;;;-1.82;59.27;101037.22;4824654;29;98832;-69
2022/01/20 03:21:09;;;;;;;1999.90;999.90;;;;;;;-1.98;59.05;101044.72;4841181;28;97852;-67
2022/01/20 03:23:37;;;;;;;1999.90;999.90;;;;;;;-2.01;60.23;101027.94;4824622;29;98865;-68
2022/01/20 03:26:05;;;;;;;1999.90;999.90;;;;;;;-2.06;60.09;101027.59;4851531;28;97943;-69
2022/01/20 03:28:34;;;;;;;1999.90;999.90;;;;;;;-2.10;59.99;101022.94;4821971;29;98508;-72
2022/01/20 03:31:02;;;;;;;1999.90;999.90;;;;;;;-1.78;59.43;101014.00;4852119;28;98680;-68
2022/01/20 03:33:29;;;;;;;1999.90;999.90;;;;;;;-1.96;59.34;101014.44;4836795;28;102315;-69
2022/01/20 03:35:58;;;;;;;1999.90;999.90;;;;;;;-1.70;59.01;101020.69;4853414;28;97594;-70
2022/01/20 03:38:45;;;;;;;1999.90;999.90;;;;;;;-1.94;59.53;101002.44;4837982;28;97313;-68
2022/01/20 03:41:14;;;;;;;1999.90;999.90;;;;;;;-2.01;59.94;100996.66;4841937;28;97637;-70
2022/01/20 03:43:44;;;;;;;1999.90;999.90;;;;;;;-2.03;59.34;100993.94;4839565;28;100098;-68
2022/01/20 03:46:13;;;;;;;1999.90;999.90;;;;;;;-2.02;59.74;100994.84;4839972;28;97669;-68
2022/01/20 03:48:49;;;;;;;1999.90;999.90;;;;;;;-2.06;60.34;100998.94;4830023;28;98091;-69
2022/01/20 03:51:20;;;;;;;1999.90;999.90;;;;;;;-2.06;60.29;100980.69;4836041;28;97506;-71
2022/01/20 03:53:49;;;;;;;1999.90;999.90;;;;;;;-2.05;60.25;100977.28;4819985;29;99984;-68
2022/01/20 03:56:18;;;;;;;1999.90;999.90;;;;;;;-2.04;60.33;100973.88;4840577;28;100945;-72
2022/01/20 03:58:58;;;;;;;1999.90;999.90;;;;;;;-2.03;60.13;100961.72;4840907;28;97263;-69
2022/01/20 04:01:26;;;;;;;1999.90;999.90;;;;;;;-2.05;59.90;100973.75;4813187;28;97139;-70
2022/01/20 04:04:21;;;;;;;1999.90;999.90;;;;;;;-2.04;60.06;100976.50;4817427;28;99411;-70
2022/01/20 04:07:05;;;;;;;1999.90;999.90;;;;;;;-2.03;60.61;100970.47;4852209;28;101658;-69
2022/01/20 04:09:33;;;;;;;1999.90;999.90;;;;;;;-2.02;60.62;100967.09;4842359;28;97291;-69
2022/01/20 04:12:01;;;;;;;1999.90;999.90;;;;;;;-2.03;60.59;100980.91;4842514;28;99096;-69
2022/01/20 04:14:33;;;;;;;1999.90;999.90;;;;;;;-1.70;59.38;100974.63;4835599;28;97914;-72
2022/01/20 04:17:04;;;;;;;1999.90;999.90;;;;;;;-1.82;59.87;100978.06;4838031;28;97802;-69
2022/01/20 04:19:33;;;;;;;1999.90;999.90;;;;;;;-1.82;60.32;100951.97;4826911;28;99378;-70
2022/01/20 04:22:02;;;;;;;1999.90;999.90;;;;;;;-1.84;60.63;100964.91;4831928;28;97911;-69
2022/01/20 04:24:30;;;;;;;1999.90;999.90;;;;;;;-1.82;60.30;100977.25;4825611;29;101976;-70
2022/01/20 04:27:00;;;;;;;1999.90;999.90;;;;;;;-1.84;60.33;100988.38;4815779;29;99581;-68
2022/01/20 04:29:31;;;;;;;1999.90;999.90;;;;;;;-1.50;59.99;100994.34;4811214;29;97933;-70
2022/01/20 04:31:59;;;;;;;1999.90;999.90;;;;;;;-1.71;60.02;100983.28;4852656;28;98866;-68
2022/01/20 04:34:27;;;;;;;1999.90;999.90;;;;;;;-1.78;60.52;100983.63;4835895;28;97339;-68
2022/01/20 04:36:55;;;;;;;1999.90;999.90;;;;;;;-1.78;60.78;100991.44;4825218;29;97695;-70
2022/01/20 04:39:27;;;;;;;1999.90;999.90;;;;;;;-1.52;59.76;100995.97;4836744;28;97815;-68
2022/01/20 04:41:55;;;;;;;1999.90;999.90;;;;;;;-1.39;59.48;100982.97;4831584;28;96882;-68
2022/01/20 04:44:37;;;;;;;1999.90;999.90;;;;;;;-1.66;60.56;100981.91;4816314;28;100236;-69
2022/01/20 04:47:17;;;;;;;1999.90;999.90;;;;;;;-1.72;61.12;100991.88;4853016;28;98953;-69
2022/01/20 04:58:03;;;;;;;1999.90;999.90;;;;;;;-1.94;61.38;101051.06;4833088;28;100726;-68
2022/01/20 05:00:31;;;;;;;1999.90;999.90;;;;;;;-2.04;61.61;101033.84;4840985;28;97014;-69
2022/01/20 05:03:30;;;;;;;1999.90;999.90;;;;;;;-2.10;61.84;101027.25;4833718;28;97382;-70
2022/01/20 05:06:04;;;;;;;1999.90;999.90;;;;;;;-2.06;60.98;101031.91;4817746;29;100596;-69
2022/01/20 05:08:32;;;;;;;1999.90;999.90;;;;;;;-2.17;61.30;101035.41;4852662;28;100685;-67
2022/01/20 05:11:04;;;;;;;1999.90;999.90;;;;;;;-2.27;61.30;101036.38;4833580;28;97225;-68
2022/01/20 05:13:40;;;;;;;1999.90;999.90;;;;;;;-2.29;60.65;101056.19;4817112;29;98535;-69
2022/01/20 05:16:09;;;;;;;1999.90;999.90;;;;;;;-2.39;60.58;101058.91;4856347;28;97622;-68
2022/01/20 05:18:39;;;;;;;1999.90;999.90;;;;;;;-2.42;60.20;101048.25;4839941;28;98048;-68
2022/01/20 05:21:06;;;;;;;1999.90;999.90;;;;;;;-2.38;60.57;101060.69;4839453;28;98296;-68
2022/01/20 05:23:35;;;;;;;1999.90;999.90;;;;;;;-2.05;59.87;101051.97;4838202;28;97430;-68
2022/01/20 05:26:09;;;;;;;1999.90;999.90;;;;;;;-2.22;60.14;101073.22;4830819;28;98818;-70
2022/01/20 05:28:37;;;;;;;1999.90;999.90;;;;;;;-2.26;60.23;101082.50;4853512;28;99400;-68
2022/01/20 05:31:05;;;;;;;1999.90;999.90;;;;;;;-2.34;59.89;101085.28;4821455;29;98348;-70
2022/01/20 05:33:46;;;;;;;1999.90;999.90;;;;;;;-2.32;60.34;101100.25;4824934;29;98963;-69
2022/01/20 05:36:14;;;;;;;1999.90;999.90;;;;;;;-2.32;60.16;101100.25;4841500;28;97892;-68
2022/01/20 05:38:42;;;;;;;1999.90;999.90;;;;;;;-2.29;60.29;101108.31;4835025;28;98044;-68
2022/01/20 05:41:10;;;;;;;1999.90;999.90;;;;;;;-2.36;59.12;101098.19;4840808;28;97746;-70
2022/01/20 05:43:37;;;;;;;1999.90;999.90;;;;;;;-2.36;59.85;101102.53;4840332;28;98582;-68
2022/01/20 05:46:06;;;;;;;1999.90;999.90;;;;;;;-2.35;59.55;101093.91;4832188;28;97614;-69
2022/01/20 05:48:36;;;;;;;1999.90;999.90;;;;;;;-2.51;58.63;101098.72;4823420;29;100227;-69
2022/01/20 05:51:21;;;;;;;1999.90;999.90;;;;;;;-2.53;58.95;101093.41;4854342;28;98021;-69
2022/01/20 05:53:48;;;;;;;1999.90;999.90;;;;;;;-2.52;59.79;101104.72;4816918;29;98723;-69
2022/01/20 05:56:16;;;;;;;1999.90;999.90;;;;;;;-2.50;59.41;101108.34;4816949;28;100491;-69
2022/01/20 05:58:45;;;;;;;1999.90;999.90;;;;;;;-2.51;60.09;101120.47;4853092;28;97563;-69
2022/01/20 06:01:16;;;;;;;1999.90;999.90;;;;;;;-2.52;58.96;101128.16;4826443;28;98069;-72
2022/01/20 06:03:44;;;;;;;1999.90;999.90;;;;;;;-2.55;59.21;101152.28;4838187;28;99222;-69
2022/01/20 06:06:17;;;;;;;1999.90;999.90;;;;;;;-2.59;59.66;101145.00;4826345;28;99939;-70
2022/01/20 06:08:48;;;;;;;1999.90;999.90;;;;;;;-2.64;59.63;101158.47;4816496;28;100608;-69
2022/01/20 06:11:17;;;;;;;1999.90;999.90;;;;;;;-2.58;60.26;101157.22;4812355;28;98422;-68
2022/01/20 06:13:47;;;;;;;1999.90;999.90;;;;;;;-2.79;62.06;101172.84;4833624;28;97468;-70
2022/01/20 06:16:16;;;;;;;1999.90;999.90;;;;;;;-2.88;67.15;101168.75;4834242;28;98391;-69
2022/01/20 06:18:44;;;;;;;1999.90;999.90;;;;;;;-3.11;69.28;101184.19;4825815;28;98423;-68
2022/01/20 06:21:12;;;;;;;1999.90;999.90;;;;;;;-3.25;70.83;101174.34;4833704;28;97752;-69
2022/01/20 06:23:40;;;;;;;1999.90;999.90;;;;;;;-3.38;70.88;101192.31;4814938;29;97525;-69
2022/01/20 06:26:11;;;;;;;1999.90;999.90;;;;;;;-3.54;69.50;101181.44;4845998;28;98605;-70
2022/01/20 06:28:41;;;;;;;1999.90;999.90;;;;;;;-3.61;67.94;101189.53;4829881;28;99192;-67
2022/01/20 06:31:10;;;;;;;1999.90;999.90;;;;;;;-3.66;67.12;101188.25;4816078;28;101090;-71
2022/01/20 06:33:39;;;;;;;1999.90;999.90;;;;;;;-3.68;66.99;101209.69;4829676;28;98666;-72
2022/01/20 06:36:09;;;;;;;1999.90;999.90;;;;;;;-3.83;64.55;101204.09;4840930;28;97980;-69
2022/01/20 06:38:37;;;;;;;1999.90;999.90;;;;;;;-3.78;65.94;101223.59;4833809;28;98065;-69
2022/01/20 06:41:05;;;;;;;1999.90;999.90;;;;;;;-3.81;64.38;101232.81;4848253;28;96879;-70
2022/01/20 06:43:36;;;;;;;1999.90;999.90;;;;;;;-3.83;63.59;101229.16;4833790;28;97253;-70
2022/01/20 06:46:05;;;;;;;1999.90;999.90;;;;;;;-3.84;63.20;101237.75;4825415;28;100644;-68
2022/01/20 06:48:50;;;;;;;1999.90;999.90;;;;;;;-3.85;63.14;101226.44;4819308;29;99274;-69
2022/01/20 06:51:29;;;;;;;1999.90;999.90;;;;;;;-3.80;63.36;101232.06;4831983;28;97149;-70
2022/01/20 06:53:57;;;;;;;1999.90;999.90;;;;;;;-3.79;61.57;101246.88;4830141;28;99889;-70
2022/01/20 06:56:25;;;;;;;1999.90;999.90;;;;;;;-3.81;60.66;101244.13;4847600;28;101118;-70
2022/01/20 06:59:09;;;;;;;1999.90;999.90;;;;;;;-3.77;60.94;101258.31;4826129;28;97922;-70
2022/01/20 07:01:37;;;;;;;1999.90;999.90;;;;;;;-3.75;60.92;101262.88;4834216;28;97036;-70
2022/01/20 07:04:05;;;;;;;1999.90;999.90;;;;;;;-3.79;60.27;101281.56;4834187;28;98098;-70
2022/01/20 07:06:33;;;;;;;1999.90;999.90;;;;;;;-3.75;61.17;101283.66;4827701;28;97691;-69
2022/01/20 07:09:19;;;;;;;1999.90;999.90;;;;;;;-3.68;60.79;101287.69;4837469;28;98504;-67
2022/01/20 07:11:50;;;;;;;1999.90;999.90;;;;;;;-3.68;60.41;101298.09;4839738;28;97151;-68
2022/01/20 07:14:19;;;;;;;1999.90;999.90;;;;;;;-3.68;59.75;101305.88;4835200;28;96904;-69
2022/01/20 07:16:48;;;;;;;1999.90;999.90;;;;;;;-3.67;59.25;101320.69;4836882;28;98585;-68
2022/01/20 07:19:16;;;;;;;1999.90;999.90;;;;;;;-3.75;58.96;101311.34;4822172;28;99455;-69
2022/01/20 07:21:44;;;;;;;1999.90;999.90;;;;;;;-3.74;59.13;101323.56;4857263;28;98740;-70
2022/01/20 07:24:15;;;;;;;1999.90;999.90;;;;;;;-3.79;59.25;101332.66;4823068;28;97009;-69
2022/01/20 07:26:43;;;;;;;1999.90;999.90;;;;;;;-3.73;59.62;101346.19;4822826;29;99186;-70
2022/01/20 07:29:27;;;;;;;1999.90;999.90;;;;;;;-3.75;59.26;101343.47;4831238;28;98425;-69
2022/01/20 07:31:55;;;;;;;1999.90;999.90;;;;;;;-3.71;59.25;101344.63;4828764;28;97870;-69
2022/01/20 07:34:23;;;;;;;1999.90;999.90;;;;;;;-3.67;59.37;101354.50;4822207;28;98263;-69
2022/01/20 07:36:51;;;;;;;1999.90;999.90;;;;;;;-3.65;58.87;101365.94;4843986;28;100467;-70
2022/01/20 07:39:19;;;;;;;1999.90;999.90;;;;;;;-3.64;58.92;101373.00;4839214;28;98778;-68
2022/01/20 07:41:47;;;;;;;1999.90;999.90;;;;;;;-3.68;59.17;101377.00;4833541;29;98129;-69
2022/01/20 07:44:36;;;;;;;1999.90;999.90;;;;;;;-3.70;58.24;101383.78;4841148;28;98506;-69
2022/01/20 07:47:17;;;;;;;1999.90;999.90;;;;;;;-3.69;58.59;101395.97;4835123;28;99380;-69
2022/01/20 07:49:45;;;;;;;1999.90;999.90;;;;;;;-3.67;58.95;101368.41;4836025;28;98511;-70
2022/01/20 07:52:14;;;;;;;1999.90;999.90;;;;;;;-3.65;59.31;101374.66;4837515;28;98158;-69
2022/01/20 07:54:41;;;;;;;1999.90;999.90;;;;;;;-3.62;59.15;101376.63;4817131;29;97711;-70
2022/01/20 07:57:10;;;;;;;1999.90;999.90;;;;;;;-3.62;58.36;101381.84;4833381;28;98280;-69
2022/01/20 07:59:39;;;;;;;1999.90;999.90;;;;;;;-3.69;58.05;101377.78;4821352;29;100603;-70
2022/01/20 08:02:09;;;;;;;1999.90;999.90;;;;;;;-3.67;58.44;101377.91;4821556;28;98110;-70
2022/01/20 08:04:38;;;;;;;1999.90;999.90;;;;;;;-3.63;58.67;101387.81;4829681;28;97510;-69
2022/01/20 08:07:09;;;;;;;1999.90;999.90;;;;;;;-3.59;58.92;101395.09;4836063;28;97668;-69
2022/01/20 08:09:38;;;;;;;1999.90;999.90;;;;;;;-3.62;58.62;101389.63;4824178;28;102756;-69
2022/01/20 08:12:24;;;;;;;1999.90;999.90;;;;;;;-3.59;59.02;101385.63;4814694;28;98501;-69
2022/01/20 08:14:54;;;;;;;1999.90;999.90;;;;;;;-3.60;58.21;101408.88;4852269;28;97555;-70
2022/01/20 08:17:37;;;;;;;1999.90;999.90;;;;;;;-3.60;58.14;101407.19;4819156;29;99657;-69
2022/01/20 08:20:05;;;;;;;1999.90;999.90;;;;;;;-3.57;58.65;101406.53;4830780;28;99376;-69
2022/01/20 08:22:34;;;;;;;1999.90;999.90;;;;;;;-3.54;58.94;101404.19;4816291;28;97384;-68
2022/01/20 08:25:08;;;;;;;1999.90;999.90;;;;;;;-3.56;58.38;101404.06;4838919;28;98526;-68
2022/01/20 08:27:37;;;;;;;1999.90;999.90;;;;;;;-3.55;58.14;101411.13;4826111;29;101268;-70
2022/01/20 08:30:09;;;;;;;1999.90;999.90;;;;;;;-3.55;58.30;101412.81;4841685;28;98628;-70
2022/01/20 08:32:37;;;;;;;1999.90;999.90;;;;;;;-3.53;58.20;101413.84;4840734;28;98391;-69
2022/01/20 08:35:14;;;;;;;1999.90;999.90;;;;;;;-3.53;57.88;101419.03;4814516;29;98167;-70
2022/01/20 08:37:59;;;;;;;1999.90;999.90;;;;;;;-3.56;58.03;101417.06;4855515;28;99204;-70
2022/01/20 08:40:27;;;;;;;1999.90;999.90;;;;;;;-3.58;57.51;101420.31;4840189;28;100434;-69
2022/01/20 08:42:56;;;;;;;1999.90;999.90;;;;;;;-3.54;58.17;101409.41;4825007;29;99843;-69
2022/01/20 08:45:27;;;;;;;1999.90;999.90;;;;;;;-3.53;58.25;101419.94;4833717;28;98128;-69
2022/01/20 08:47:57;;;;;;;1999.90;999.90;;;;;;;-3.49;58.15;101415.91;4822501;29;99373;-70
2022/01/20 08:50:34;;;;;;;1999.90;999.90;;;;;;;-3.46;57.89;101429.19;4812572;29;101434;-70
2022/01/20 08:53:02;;;;;;;1999.90;999.90;;;;;;;-3.42;58.14;101433.91;4812681;29;97791;-71
2022/01/20 08:55:30;;;;;;;1999.90;999.90;;;;;;;-3.51;58.00;101438.31;4839715;28;97921;-68
2022/01/20 08:58:06;;;;;;;1999.90;999.90;;;;;;;-3.49;58.33;101431.50;4816024;29;97478;-69
2022/01/20 09:00:37;;;;;;;1999.90;999.90;;;;;;;-3.49;58.23;101422.03;4820248;29;99770;-68
2022/01/20 09:03:06;;;;;;;1999.90;999.90;;;;;;;-3.55;58.21;101426.72;4815984;28;99123;-69
2022/01/20 09:05:35;;;;;;;1999.90;999.90;;;;;;;-3.51;58.37;101423.59;4817464;29;97445;-70
2022/01/20 09:08:07;;;;;;;1999.90;999.90;;;;;;;-3.49;58.71;101410.69;4831904;28;100717;-69
2022/01/20 09:10:39;;;;;;;1999.90;999.90;;;;;;;-3.49;58.44;101428.91;4834528;28;100660;-70
2022/01/20 09:15:59;;;;;;;1999.90;999.90;;;;;;;-3.52;57.51;101405.25;4840948;28;98160;-70
2022/01/20 09:18:38;;;;;;;1999.90;999.90;;;;;;;-3.51;57.68;101414.91;4839825;28;99773;-69
2022/01/20 09:21:05;;;;;;;1999.90;999.90;;;;;;;-3.48;58.14;101420.34;4822726;28;99305;-75
2022/01/20 09:23:37;;;;;;;1999.90;999.90;;;;;;;-3.43;58.43;101429.44;4829979;28;99769;-69
2022/01/20 09:26:06;;;;;;;1999.90;999.90;;;;;;;-3.45;57.71;101428.41;4832831;28;98096;-68
2022/01/20 09:28:38;;;;;;;1999.90;999.90;;;;;;;-3.39;57.87;101428.94;4851096;28;100997;-69
2022/01/20 09:31:08;;;;;;;1999.90;999.90;;;;;;;-3.40;56.75;101422.81;4812531;28;100581;-68
2022/01/20 09:33:36;;;;;;;1999.90;999.90;;;;;;;-3.36;58.02;101435.31;4835188;28;97808;-70
2022/01/20 09:36:08;;;;;;;1999.90;999.90;;;;;;;-3.29;57.57;101432.47;4822348;29;96958;-67
2022/01/20 09:38:37;;;;;;;1999.90;999.90;;;;;;;-3.26;57.63;101427.56;4814973;29;98977;-69
2022/01/20 09:41:08;;;;;;;1999.90;999.90;;;;;;;-3.23;57.70;101455.50;4824549;28;98688;-68
2022/01/20 09:43:36;;;;;;;1999.90;999.90;;;;;;;-3.21;56.59;101447.06;4830881;28;97730;-69
2022/01/20 09:46:05;;;;;;;1999.90;999.90;;;;;;;-3.19;57.14;101434.19;4838944;28;98835;-68
2022/01/20 09:48:41;;;;;;;1999.90;999.90;;;;;;;-3.19;57.30;101455.91;4822017;29;98613;-69
2022/01/20 09:51:25;;;;;;;1999.90;999.90;;;;;;;-3.14;57.22;101453.69;4826659;28;99139;-73
2022/01/20 09:54:12;;;;;;;1999.90;999.90;;;;;;;-3.13;57.02;101445.13;4817810;28;98342;-68
2022/01/20 09:57:00;;;;;;;1999.90;999.90;;;;;;;-3.12;57.37;101452.13;4839574;28;97205;-69
2022/01/20 09:59:31;;;;;;;1999.90;999.90;;;;;;;-3.08;56.69;101449.03;4838891;28;100105;-67
2022/01/20 10:02:00;;;;;;;1999.90;999.90;;;;;;;-3.09;57.07;101453.31;4831043;28;98727;-67
2022/01/20 10:04:33;;;;;;;1999.90;999.90;;;;;;;-3.05;56.61;101451.88;4848984;28;96960;-65
2022/01/20 10:07:08;;;;;;;1999.90;999.90;;;;;;;-3.02;56.35;101449.56;4838893;28;97218;-67
2022/01/20 10:09:41;;;;;;;1999.90;999.90;;;;;;;-3.00;56.31;101445.38;4819198;29;100214;-67
2022/01/20 10:12:28;;;;;;;1999.90;999.90;;;;;;;-2.97;56.56;101437.84;4839216;28;101090;-68
2022/01/20 10:15:10;;;;;;;1999.90;999.90;;;;;;;-3.00;56.66;101441.06;4840360;28;98320;-68
2022/01/20 10:18:05;;;;;;;1999.90;999.90;;;;;;;-2.91;56.69;101448.78;4834277;28;97086;-68
2022/01/20 10:20:36;;;;;;;1999.90;999.90;;;;;;;-2.90;56.27;101437.56;4822915;28;102079;-70
2022/01/20 10:23:09;;;;;;;1999.90;999.90;;;;;;;-2.82;56.24;101452.16;4851851;28;98202;-69
2022/01/20 10:25:37;;;;;;;1999.90;999.90;;;;;;;-2.81;56.47;101448.75;4838207;28;98566;-67
2022/01/20 10:28:16;;;;;;;1999.90;999.90;;;;;;;-2.77;56.49;101437.84;4815181;28;97127;-69
2022/01/20 10:30:47;;;;;;;1999.90;999.90;;;;;;;-2.76;56.39;101437.03;4836786;28;99932;-68
2022/01/20 10:33:16;;;;;;;1999.90;999.90;;;;;;;-2.73;56.82;101446.81;4822894;28;100513;-68
2022/01/20 10:35:47;;;;;;;1999.90;999.90;;;;;;;-2.73;56.86;101449.41;4838615;28;99138;-69
2022/01/20 10:38:49;;;;;;;1999.90;999.90;;;;;;;-2.73;56.79;101444.22;4833778;28;99266;-69
2022/01/20 10:41:27;;;;;;;1999.90;999.90;;;;;;;-2.82;54.67;101445.25;4818811;28;100298;-70
2022/01/20 10:44:02;;;;;;;1999.90;999.90;;;;;;;-2.72;56.47;101441.72;4830541;28;99280;-70
2022/01/20 10:46:47;;;;;;;1999.90;999.90;;;;;;;-2.68;56.89;101445.50;4822268;28;98143;-70
2022/01/20 10:49:20;;;;;;;1999.90;999.90;;;;;;;-2.65;57.17;101428.44;4811834;28;98094;-70
2022/01/20 10:51:58;;;;;;;1999.90;999.90;;;;;;;-2.62;56.56;101436.53;4825362;29;97522;-69
2022/01/20 10:54:33;;;;;;;1999.90;999.90;;;;;;;-2.62;56.59;101438.22;4821670;28;99513;-70
2022/01/20 10:57:02;;;;;;;1999.90;999.90;;;;;;;-2.68;55.51;101446.41;4846455;28;97465;-68
2022/01/20 10:59:30;;;;;;;1999.90;999.90;;;;;;;-2.65;56.13;101438.84;4822294;29;97042;-70
2022/01/20 11:02:06;;;;;;;1999.90;999.90;;;;;;;-2.67;54.99;101445.63;4835859;28;99081;-70
2022/01/20 11:04:37;;;;;;;1999.90;999.90;;;;;;;-2.61;56.81;101427.91;4819033;28;99386;-69
2022/01/20 11:07:08;;;;;;;1999.90;999.90;;;;;;;-2.53;56.87;101438.97;4849155;28;97708;-68
2022/01/20 11:09:51;;;;;;;1999.90;999.90;;;;;;;-2.53;56.55;101436.38;4835984;28;99009;-69
2022/01/20 11:12:37;;;;;;;1999.90;999.90;;;;;;;-2.53;56.22;101434.69;4840214;28;98915;-69
2022/01/20 11:15:17;;;;;;;1999.90;999.90;;;;;;;-2.55;56.08;101436.25;4822325;28;99191;-68
2022/01/20 11:17:52;;;;;;;1999.90;999.90;;;;;;;-2.52;55.79;101444.31;4834964;28;98628;-70
2022/01/20 11:20:22;;;;;;;1999.90;999.90;;;;;;;-2.59;56.01;101447.19;4828113;28;99435;-68
2022/01/20 11:22:53;;;;;;;1999.90;999.90;;;;;;;-2.57;56.23;101426.47;4838787;28;101370;-68
2022/01/20 11:25:26;;;;;;;1999.90;999.90;;;;;;;-2.58;56.45;101432.47;4853615;28;99607;-69
2022/01/20 11:28:29;;;;;;;1999.90;999.90;;;;;;;-2.62;55.50;101423.50;4803112;29;97345;-70
2022/01/20 11:31:10;;;;;;;1999.90;999.90;;;;;;;-2.57;56.15;101434.28;4830390;28;98373;-69
2022/01/20 11:33:57;;;;;;;1999.90;999.90;;;;;;;-2.55;55.97;101433.63;4837025;28;100336;-68
2022/01/20 11:36:26;;;;;;;1999.90;999.90;;;;;;;-2.53;56.55;101424.25;4835014;28;98716;-69
2022/01/20 11:39:19;;;;;;;1999.90;999.90;;;;;;;-2.52;55.68;101428.69;4816201;28;97375;-69
2022/01/20 11:41:49;;;;;;;1999.90;999.90;;;;;;;-2.45;55.93;101430.06;4831847;28;98343;-69
2022/01/20 11:44:18;;;;;;;1999.90;999.90;;;;;;;-2.42;56.61;101418.25;4829774;28;100806;-69
2022/01/20 11:46:48;;;;;;;1999.90;999.90;;;;;;;-2.40;56.08;101415.75;4834245;28;99982;-68
2022/01/20 11:49:19;;;;;;;1999.90;999.90;;;;;;;-2.36;56.77;101420.44;4841545;28;97218;-69
2022/01/20 11:51:50;;;;;;;1999.90;999.90;;;;;;;-2.40;55.53;101414.03;4840155;28;98063;-69